• Join FlightAware (Why Join?)
  • Login
  • US Flag 
Rudolph Flight #1: Arrived! 
11:12AM EST


 

Airport Tracker/Info


-or-


 

Live Flight TrackerFlight Track Log ✈ N173AA ✈ 25-Oct-2013 ✈ KDWH - KPGV

Flight Track Log - Related Links

Times and Time Zones

All times are in EDT time to prevent confusion due to time zone crossing. See the N173AA flight status page for this flight to view local times or setup timezone preferences in your user account.

Time Position Orientation Groundspeed Altitude Reporting Facility
EDT Latitude Longitude Course Direction KTS MPH feet Rate Location/Type
01:39AM 30.0817 -95.5561 15° North 144 166 800  Level Houston Center
01:40AM 30.1058 -95.5486 15° North 177 204 1,600 1,800 Climbing Houston Center
01:40AM 30.1161 -95.5422 28° Northeast 175 201 2,100 1,980 Climbing Houston Center
01:41AM 30.1442 -95.5114 44° Northeast 179 206 3,600 1,860 Climbing Houston Center
01:41AM 30.1478 -95.4975 73° East 186 214 4,000 1,860 Climbing Houston Center
01:42AM 30.1419 -95.4494 98° East 197 227 5,500 1,680 Climbing Houston Center
01:43AM 30.1319 -95.3875 101° East 197 227 7,300 1,800 Climbing Houston Center
01:44AM 30.1228 -95.3200 99° East 209 241 9,200 1,680 Climbing Houston Center
01:45AM 30.1108 -95.2497 101° East 221 254 10,700 1,380 Climbing Houston Center
01:46AM 30.0983 -95.1728 101° East 240 276 12,000 1,200 Climbing Houston Center
01:47AM 30.0894 -95.0889 97° East 259 298 13,200 1,260 Climbing Houston Center
01:49AM 30.1665 -94.8985 65° Northeast  Level Estimated
01:50AM 30.0653 -94.8233 65° Northeast 280 322 17,100  Level Houston Center
01:52AM 30.1424 -94.6353 65° Northeast  Level Estimated
01:54AM 30.1747 -94.4861 65° Northeast 293 337 21,900  Level Houston Center
01:55AM 30.2103 -94.3969 65° Northeast 303 349 22,800 900 Climbing Houston Center
01:56AM 30.2503 -94.3081 62° Northeast 310 357 23,800 960 Climbing Houston Center
01:57AM 30.2900 -94.2175 63° Northeast 314 361 24,800 900 Climbing Houston Center
01:58AM 30.3297 -94.1253 63° Northeast 319 367 25,700 900 Climbing Houston Center
01:59AM 30.4573 -93.8580 65° Northeast  Level Estimated
01:59AM 30.3683 -94.0328 64° Northeast 318 366 26,600  Level Houston Center
02:00AM 30.4056 -93.9406 65° Northeast 317 365 27,600 900 Climbing Houston Center
02:01AM 30.4414 -93.8483 66° East 313 360 28,500 900 Climbing Houston Center
02:02AM 30.4758 -93.7553 67° East 313 360 29,500 900 Climbing Houston Center
02:03AM 30.5114 -93.6644 66° East 308 354 30,400 720 Climbing Houston Center
02:04AM 30.5481 -93.5736 65° Northeast 307 353 31,000 240 Climbing Houston Center
02:05AM 30.5850 -93.4769 66° East 321 369 31,000  Level Houston Center
02:06AM 30.6256 -93.3736 65° Northeast 344 396 31,000  Level Houston Center
02:07AM 30.6697 -93.2667 64° Northeast 363 418 31,000  Level Houston Center
02:08AM 30.7147 -93.1578 64° Northeast 374 430 31,000  Level Houston Center
02:09AM 30.7600 -93.0456 65° Northeast 381 438 31,000  Level Houston Center
02:10AM 30.8000 -92.9411 66° East 382 440 31,000  Level Houston Center
02:11AM 30.8436 -92.8264 66° East 388 447 31,000  Level Houston Center
02:12AM 30.8894 -92.7117 65° Northeast 392 451 31,000  Level Houston Center
02:13AM 30.9342 -92.5983 65° Northeast 389 448 31,000  Level Houston Center
02:14AM 30.9775 -92.4853 66° East 388 447 31,000  Level Houston Center
02:15AM 31.0261 -92.3581 66° East 391 450 31,000  Level Houston Center
02:16AM 31.0700 -92.2422 66° East 392 451 31,000  Level Houston Center
02:17AM 31.1142 -92.1261 66° East 392 451 31,000  Level Houston Center
02:18AM 31.1522 -92.0264 66° East 392 451 31,000  Level Houston Center
02:19AM 31.1972 -91.9103 66° East 394 453 31,000  Level Houston Center
02:20AM 31.2425 -91.7944 65° Northeast 394 453 31,000  Level Houston Center
02:21AM 31.2872 -91.6786 66° East 393 452 31,000 120 Level Houston Center
02:22AM 31.3311 -91.5617 66° East 395 455 31,300 720 Climbing Houston Center
02:23AM 31.3719 -91.4533 66° East 367 422 32,500 960 Climbing Houston Center
02:24AM 31.4106 -91.3500 66° East 350 403 33,300 600 Climbing Houston Center
02:25AM 31.4486 -91.2486 66° East 343 395 33,800 600 Climbing Houston Center
02:26AM 31.4844 -91.1481 67° East 336 387 34,600 540 Climbing Houston Center
02:27AM 31.5278 -91.0328 66° East 331 381 35,000 180 Climbing Houston Center
02:28AM 31.5650 -90.9297 67° East 340 391 35,000  Level Houston Center
02:29AM 31.6056 -90.8211 66° East 359 413 35,000  Level Houston Center
02:30AM 31.6453 -90.7136 67° East 360 414 35,000 -240 Level Houston Center
02:31AM 31.6853 -90.6100 66° East 351 404 34,600 -720 Descending Houston Center
02:32AM 31.7236 -90.5014 67° East 359 413 33,600 -1,320 Descending Houston Center
02:33AM 31.7636 -90.3881 67° East 372 428 32,000 -1,740 Descending Houston Center
02:34AM 31.8350 -90.2972 47° Northeast 374 430 30,100 -2,400 Descending Houston Center
02:35AM 31.9136 -90.2225 39° Northeast 364 419 27,300 -2,700 Descending Houston Center
02:36AM 31.9953 -90.1536 36° Northeast 361 415 24,700 -2,640 Descending Houston Center
02:37AM 32.0747 -90.0953 32° Northeast 348 400 22,100 -2,820 Descending Houston Center
02:38AM 32.1583 -90.0453 27° Northeast 340 391 19,100 -2,820 Descending Houston Center
02:39AM 32.2400 -90.0639 349° North 303 349 16,500 -2,400 Descending Houston Center
02:40AM 32.2531 -90.1475 280° West 276 318 14,400 -2,340 Descending Houston Center
02:41AM 32.1836 -90.1819 203° Southwest 305 351 11,900 -2,700 Descending Houston Center
02:42AM 32.1236 -90.1147 136° Southeast 309 356 9,000 -2,460 Descending Houston Center
02:43AM 32.1494 -89.9992 75° East 200 230 6,200 -2,220 Descending Memphis Center
02:44AM 32.2100 -90.0111 351° North 139 160 3,900 -2,100 Descending Memphis Center
02:45AM 32.2581 -90.0428 331° Northwest 147 169 2,000 -1,500 Descending Memphis Center
02:46AM 32.3061 -90.0600 343° North 168 193 900 480 Descending Memphis Center
02:47AM 32.3481 -90.0794 339° North 168 193 3,000 1,020 Climbing Memphis Center
02:48AM 32.3897 -90.0967 341° North 168 193 3,000  Level Memphis Center
02:49AM 32.4317 -90.1161 339° North 168 193 3,000  Level Memphis Center
02:50AM 32.4650 -90.1308 340° North 168 193 3,000  Level Memphis Center
02:52AM 32.4650 -90.1308 270° West 168 193 3,000  Level Memphis Center
02:54AM 32.4650 -90.1308 270° West 168 193 3,000  Level Memphis Center
02:56AM 32.4650 -90.1308 270° West 168 193 3,000  Level Memphis Center
02:58AM 32.4650 -90.1308 270° West 168 193 3,000  Level Memphis Center
03:00AM 32.4650 -90.1308 270° West 168 193 3,000  Level Memphis Center
03:02AM 32.4650 -90.1308 270° West 168 193 3,000  Level Memphis Center
03:04AM 32.4650 -90.1308 270° West 168 193 3,000  Level Memphis Center
03:06AM 32.4650 -90.1308 270° West 168 193 3,000  Level Memphis Center
03:08AM 32.4650 -90.1308 270° West 168 193 3,000  Level Memphis Center
03:10AM 32.4650 -90.1308 270° West 168 193 3,000  Level Memphis Center
03:12AM 32.4650 -90.1308 270° West 168 193 3,000  Level Memphis Center
03:14AM 32.4650 -90.1308 270° West 168 193 3,000  Level Memphis Center
03:16AM 32.4650 -90.1308 270° West 168 193 3,000  Level Memphis Center
03:18AM 32.4650 -90.1308 270° West 168 193 3,000  Level Memphis Center
03:20AM 32.4650 -90.1308 270° West 168 193 3,000  Level Memphis Center
03:22AM 32.4650 -90.1308 270° West 168 193 3,000  Level Memphis Center
03:24AM 32.4650 -90.1308 270° West 168 193 3,000  Level Memphis Center
03:26AM 32.4804 -89.9941 82° East  Level FlightAware Approximate
03:33AM 32.7072 -89.2577 70° East  Level Estimated
03:34AM 32.7393 -89.1522 70° East  Level Estimated
03:35AM 32.7668 -89.0448 73° East  Level FlightAware Approximate
03:36AM 32.7943 -88.9374 73° East  Level FlightAware Approximate
03:37AM 32.8216 -88.8300 73° East  Level FlightAware Approximate
03:38AM 32.8489 -88.7225 73° East  Level FlightAware Approximate
03:39AM 32.8760 -88.6149 73° East  Level FlightAware Approximate
03:40AM 32.9031 -88.5072 73° East  Level FlightAware Approximate
03:41AM 32.9301 -88.3995 73° East  Level FlightAware Approximate
03:42AM 32.9570 -88.2917 73° East  Level FlightAware Approximate
03:43AM 32.9838 -88.1838 73° East  Level FlightAware Approximate
03:44AM 33.0105 -88.0759 74° East  Level FlightAware Approximate
03:45AM 33.0420 -87.9698 71° East  Level Estimated
03:46AM 33.0730 -87.8635 71° East  Level FlightAware Approximate
03:47AM 33.1040 -87.7571 71° East  Level FlightAware Approximate
03:48AM 33.1348 -87.6506 71° East  Level FlightAware Approximate
03:49AM 33.1656 -87.5440 71° East  Level FlightAware Approximate
03:50AM 33.1963 -87.4374 71° East  Level FlightAware Approximate
03:51AM 33.2268 -87.3307 71° East  Level FlightAware Approximate
03:52AM 33.2573 -87.2239 71° East  Level FlightAware Approximate
03:53AM 33.2877 -87.1170 71° East  Level FlightAware Approximate
03:54AM 33.3180 -87.0101 71° East  Level FlightAware Approximate
03:55AM 33.3482 -86.9031 71° East  Level FlightAware Approximate
03:56AM 33.3784 -86.7960 71° East  Level FlightAware Approximate
03:57AM 33.4084 -86.6889 71° East  Level FlightAware Approximate
03:58AM 33.4383 -86.5816 71° East  Level FlightAware Approximate
03:59AM 33.4682 -86.4743 72° East  Level FlightAware Approximate
04:00AM 33.4979 -86.3669 72° East  Level FlightAware Approximate
04:01AM 33.5276 -86.2595 72° East  Level FlightAware Approximate
04:02AM 33.5571 -86.1520 72° East  Level FlightAware Approximate
04:03AM 33.5866 -86.0444 72° East  Level FlightAware Approximate
04:04AM 33.6160 -85.9367 72° East  Level FlightAware Approximate
04:05AM 33.6453 -85.8289 72° East  Level FlightAware Approximate
04:06AM 33.6750 -85.7213 72° East  Level Estimated
04:07AM 33.7037 -85.6133 72° East  Level FlightAware Approximate
04:08AM 33.7322 -85.5051 72° East  Level FlightAware Approximate
04:09AM 33.7607 -85.3969 72° East  Level FlightAware Approximate
04:10AM 33.7891 -85.2887 72° East  Level FlightAware Approximate
04:11AM 33.8184 -85.1807 72° East  Level Estimated
04:12AM 33.8474 -85.0726 72° East  Level FlightAware Approximate
04:13AM 33.8763 -84.9644 72° East  Level FlightAware Approximate
04:14AM 33.9050 -84.8561 72° East  Level FlightAware Approximate
04:15AM 33.9337 -84.7478 72° East  Level FlightAware Approximate
04:16AM 33.9623 -84.6394 72° East  Level FlightAware Approximate
04:17AM 33.9908 -84.5309 72° East  Level FlightAware Approximate
04:18AM 34.0192 -84.4223 72° East  Level FlightAware Approximate
04:19AM 34.0475 -84.3137 73° East  Level FlightAware Approximate
04:20AM 34.0757 -84.2050 73° East  Level FlightAware Approximate
04:21AM 34.1039 -84.0962 73° East  Level FlightAware Approximate
04:22AM 34.1319 -83.9874 73° East  Level FlightAware Approximate
04:23AM 34.1600 -83.8785 72° East  Level Estimated
04:24AM 34.1890 -83.7700 72° East  Level FlightAware Approximate
04:25AM 34.2179 -83.6613 72° East  Level FlightAware Approximate
04:26AM 34.2467 -83.5526 72° East  Level FlightAware Approximate
04:27AM 34.2753 -83.4438 72° East  Level FlightAware Approximate
04:28AM 34.3030 -83.3346 73° East  Level Estimated
04:29AM 34.3305 -83.2253 72° East  Level Estimated
04:30AM 34.3594 -83.1165 72° East  Level FlightAware Approximate
04:31AM 34.3883 -83.0077 72° East  Level FlightAware Approximate
04:32AM 34.4154 -82.8981 74° East  Level Estimated
04:33AM 34.4421 -82.7884 74° East  Level FlightAware Approximate
04:34AM 34.4686 -82.6785 74° East  Level FlightAware Approximate
04:35AM 34.4950 -82.5686 74° East  Level FlightAware Approximate
04:36AM 34.5214 -82.4586 74° East  Level FlightAware Approximate
04:37AM 34.5476 -82.3486 74° East  Level FlightAware Approximate
04:38AM 34.5738 -82.2385 74° East  Level FlightAware Approximate
04:39AM 34.5998 -82.1283 74° East  Level FlightAware Approximate
04:40AM 34.6258 -82.0181 74° East  Level FlightAware Approximate
04:41AM 34.6516 -81.9078 74° East  Level FlightAware Approximate
04:42AM 34.6774 -81.7974 74° East  Level FlightAware Approximate
04:43AM 34.7030 -81.6869 74° East  Level FlightAware Approximate
04:44AM 34.7286 -81.5764 74° East  Level FlightAware Approximate
04:45AM 34.7546 -81.4660 74° East  Level Estimated
04:46AM 34.7801 -81.3554 74° East  Level FlightAware Approximate
04:47AM 34.8055 -81.2447 74° East  Level FlightAware Approximate
04:48AM 34.8308 -81.1340 74° East  Level FlightAware Approximate
04:49AM 34.8560 -81.0232 74° East  Level FlightAware Approximate
04:50AM 34.8811 -80.9123 75° East  Level FlightAware Approximate
04:51AM 34.9061 -80.8014 75° East  Level FlightAware Approximate
04:52AM 34.9310 -80.6904 75° East  Level FlightAware Approximate
04:53AM 34.9558 -80.5793 75° East  Level FlightAware Approximate
04:54AM 34.9805 -80.4681 75° East  Level FlightAware Approximate
04:55AM 35.0051 -80.3569 75° East  Level FlightAware Approximate
04:56AM 35.0297 -80.2457 75° East  Level FlightAware Approximate
04:57AM 35.0541 -80.1343 75° East  Level FlightAware Approximate
04:58AM 35.0784 -80.0229 75° East  Level FlightAware Approximate
04:59AM 35.1032 -79.9116 75° East  Level Estimated
05:00AM 35.1270 -79.8000 75° East  Level FlightAware Approximate
05:01AM 35.1508 -79.6883 75° East  Level FlightAware Approximate
05:02AM 35.1745 -79.5766 75° East  Level FlightAware Approximate
05:03AM 35.1981 -79.4648 75° East  Level FlightAware Approximate
05:04AM 35.2216 -79.3529 76° East  Level FlightAware Approximate
05:05AM 35.2450 -79.2410 76° East  Level FlightAware Approximate
05:06AM 35.2682 -79.1290 76° East  Level FlightAware Approximate
05:07AM 35.2914 -79.0169 76° East  Level FlightAware Approximate
05:08AM 35.3145 -78.9048 76° East  Level FlightAware Approximate
05:09AM 35.3374 -78.7926 76° East  Level FlightAware Approximate
05:10AM 35.3603 -78.6804 76° East  Level FlightAware Approximate
05:11AM 35.3847 -78.5685 76° East  Level Estimated
05:12AM 35.4065 -78.4559 77° East  Level FlightAware Approximate
05:13AM 35.4282 -78.3432 77° East  Level FlightAware Approximate
05:14AM 35.4528 -78.2314 76° East  Level Estimated
05:15AM 35.4752 -78.1188 76° East  Level FlightAware Approximate
05:16AM 35.4975 -78.0062 76° East  Level FlightAware Approximate
05:17AM 35.5197 -77.8935 76° East  Level FlightAware Approximate
05:18AM 35.5417 -77.7808 76° East  Level FlightAware Approximate
05:19AM 35.5637 -77.6680 77° East  Level FlightAware Approximate